createdAt,value
2022-12-01T00:00:40.008Z,38.6
2022-12-01T00:03:41.840Z,40.7
2022-12-01T00:06:29.381Z,36.6
2022-12-01T00:09:19.984Z,37
2022-12-01T00:12:39.853Z,37.6
2022-12-01T00:15:28.138Z,37.9
2022-12-01T00:18:19.225Z,41.3
2022-12-01T00:21:06.863Z,35.1
2022-12-01T00:23:59.683Z,35.4
2022-12-01T00:26:47.532Z,34
2022-12-01T00:29:35.154Z,37.6
2022-12-01T00:32:22.828Z,39.3
2022-12-01T00:35:10.264Z,35.7
2022-12-01T00:37:58.663Z,33.5
2022-12-01T00:40:46.214Z,34.3
2022-12-01T00:43:33.824Z,38.3
2022-12-01T00:46:21.684Z,35.2
2022-12-01T00:49:09.361Z,31.6
2022-12-01T00:51:58.335Z,35.8
2022-12-01T00:54:45.880Z,35.4
2022-12-01T00:57:33.441Z,38.6
2022-12-01T01:00:21.073Z,36.7
2022-12-01T01:03:08.783Z,37.1
2022-12-01T01:05:56.788Z,36.7
2022-12-01T01:08:50.581Z,31.7
2022-12-01T01:11:38.141Z,35.1
2022-12-01T01:14:26.372Z,34.2
2022-12-01T01:17:14.010Z,37.1
2022-12-01T01:20:01.909Z,34.1
2022-12-01T01:22:51.905Z,36.1
2022-12-01T01:25:39.479Z,34.2
2022-12-01T01:28:26.998Z,33.4
2022-12-01T01:31:15.394Z,34.5
2022-12-01T01:34:06.036Z,35.6
2022-12-01T01:36:53.668Z,32.7
2022-12-01T01:39:41.417Z,37.4
2022-12-01T01:42:28.878Z,34.5
2022-12-01T01:45:16.396Z,35.7
2022-12-01T01:48:07.818Z,37.2
2022-12-01T01:50:58.196Z,36.7
2022-12-01T01:53:45.960Z,33.2
2022-12-01T01:56:37.553Z,35.4
2022-12-01T01:59:25.111Z,38
2022-12-01T02:02:16.645Z,36.5
2022-12-01T02:05:04.776Z,37.9
2022-12-01T02:07:55.839Z,36.9
2022-12-01T02:10:45.345Z,35.5
2022-12-01T02:13:50.050Z,35.6
2022-12-01T02:16:51.619Z,38.8
2022-12-01T02:19:48.254Z,38.2
2022-12-01T02:23:04.371Z,40.6
2022-12-01T02:26:34.134Z,35.9
2022-12-01T02:29:31.597Z,34.7
2022-12-01T02:32:38.962Z,36.6
2022-12-01T02:35:34.553Z,32.2
2022-12-01T02:38:31.369Z,33.4
2022-12-01T02:41:24.023Z,36.4
2022-12-01T02:44:18.129Z,38.1
2022-12-01T02:47:09.860Z,37.9
2022-12-01T02:50:00.486Z,31
2022-12-01T02:52:51.075Z,32.7
2022-12-01T02:55:39.470Z,30.6
2022-12-01T02:58:37.479Z,37.8
2022-12-01T03:01:25.139Z,34.3
2022-12-01T03:04:26.875Z,32.4
2022-12-01T03:07:29.711Z,36.4
2022-12-01T03:10:30.956Z,33.9
2022-12-01T03:13:30.542Z,31.2
2022-12-01T03:16:27.830Z,32.5
2022-12-01T03:19:24.890Z,35.9
2022-12-01T03:22:19.346Z,30.1
2022-12-01T03:25:11.804Z,34.1
2022-12-01T03:28:20.869Z,31.8
2022-12-01T03:31:15.458Z,35.2
2022-12-01T03:34:07.959Z,36.2
2022-12-01T03:37:02.678Z,35.1
2022-12-01T03:39:59.760Z,37.4
2022-12-01T03:42:50.993Z,33.8
2022-12-01T03:45:42.108Z,33.5
2022-12-01T03:48:40.324Z,37.1
2022-12-01T03:51:28.445Z,34.8
2022-12-01T03:54:24.391Z,35
2022-12-01T03:57:21.110Z,35.9
2022-12-01T04:00:14.667Z,38.1
2022-12-01T04:03:04.172Z,35.7
2022-12-01T04:05:52.013Z,33.9
2022-12-01T04:08:40.152Z,37.5
2022-12-01T04:11:31.129Z,37.9
2022-12-01T04:14:51.733Z,32.6
2022-12-01T04:17:39.288Z,34.6
2022-12-01T04:20:28.330Z,36.9
2022-12-01T04:23:15.882Z,34.1
2022-12-01T04:26:44.597Z,35.6
2022-12-01T04:29:32.147Z,42.5
2022-12-01T04:32:20.017Z,36.4
2022-12-01T04:35:07.692Z,34
2022-12-01T04:37:57.236Z,32.9
2022-12-01T04:40:44.826Z,39.5
2022-12-01T04:43:32.405Z,36.7
2022-12-01T04:46:20.433Z,35.6
2022-12-01T04:49:09.104Z,31.8
2022-12-01T04:51:56.889Z,39.3
2022-12-01T04:54:44.394Z,37.4
2022-12-01T04:57:31.917Z,31.4
2022-12-01T05:00:19.936Z,37.6
2022-12-01T05:03:12.101Z,35.1
2022-12-01T05:06:02.899Z,35.7
2022-12-01T05:08:53.014Z,31.5
2022-12-01T05:11:43.283Z,32.7
2022-12-01T05:14:31.157Z,34.7
2022-12-01T05:17:19.298Z,34.8
2022-12-01T05:20:06.819Z,35.3
2022-12-01T05:23:34.628Z,31.5
2022-12-01T05:26:23.570Z,35.1
2022-12-01T05:29:11.041Z,32.1
2022-12-01T05:31:59.679Z,36.2
2022-12-01T05:34:47.617Z,32.9
2022-12-01T05:37:35.206Z,34
2022-12-01T05:40:22.812Z,31.8
2022-12-01T05:43:10.344Z,35.9
2022-12-01T05:45:57.975Z,30.7
2022-12-01T05:48:45.631Z,33.6
2022-12-01T05:51:33.276Z,32.5
2022-12-01T05:54:21.399Z,32.9
2022-12-01T05:57:08.876Z,34.1
2022-12-01T05:59:56.453Z,32.7
2022-12-01T06:02:44.009Z,34.9
2022-12-01T06:05:31.883Z,35
2022-12-01T06:08:19.860Z,36.1
2022-12-01T06:11:07.416Z,34.3
2022-12-01T06:13:55.004Z,32.8
2022-12-01T06:16:42.673Z,36.8
2022-12-01T06:19:30.234Z,37.2
2022-12-01T06:22:17.757Z,34.8
2022-12-01T06:25:05.335Z,38.3
2022-12-01T06:27:54.039Z,31.7
2022-12-01T06:30:42.096Z,35.5
2022-12-01T06:33:30.410Z,34.2
2022-12-01T06:36:18.363Z,33.9
2022-12-01T06:39:05.918Z,34.2
2022-12-01T06:41:54.593Z,35.2
2022-12-01T06:44:42.233Z,37.8
2022-12-01T06:47:30.828Z,37.1
2022-12-01T06:50:18.770Z,38.9
2022-12-01T06:53:06.485Z,43.2
2022-12-01T06:55:55.379Z,42.3
2022-12-01T06:58:45.869Z,38.3
2022-12-01T07:01:35.144Z,33.4
2022-12-01T07:04:23.286Z,32.3
2022-12-01T07:07:11.124Z,33.7
2022-12-01T07:09:58.725Z,35.3
2022-12-01T07:12:46.260Z,36.5
2022-12-01T07:15:33.842Z,35.8
2022-12-01T07:18:23.218Z,32.2
2022-12-01T07:21:10.856Z,31.4
2022-12-01T07:23:59.776Z,36.6
2022-12-01T07:26:47.307Z,37.7
2022-12-01T07:29:34.843Z,83.1
2022-12-01T07:32:22.364Z,81.5
2022-12-01T07:35:10.078Z,52.7
2022-12-01T07:37:58.036Z,51.7
2022-12-01T07:40:45.690Z,90.7
2022-12-01T07:43:33.440Z,58.7
2022-12-01T07:46:23.747Z,60.1
2022-12-01T07:49:13.214Z,41.4
2022-12-01T07:52:00.765Z,36.1
2022-12-01T07:54:48.440Z,40.1
2022-12-01T07:57:36.220Z,34.4
2022-12-01T08:00:23.759Z,35.2
2022-12-01T08:03:11.894Z,37.6
2022-12-01T08:05:59.974Z,42.8
2022-12-01T08:08:49.926Z,35.5
2022-12-01T08:11:38.001Z,32.6
2022-12-01T08:14:25.725Z,36.7
2022-12-01T08:17:13.314Z,33.3
2022-12-01T08:20:00.834Z,33.6
2022-12-01T08:22:49.787Z,32.1
2022-12-01T08:25:37.419Z,35.3
2022-12-01T08:28:25.015Z,37.4
2022-12-01T08:31:12.722Z,35.2
2022-12-01T08:34:02.234Z,34.9
2022-12-01T08:36:51.881Z,33.9
2022-12-01T08:39:39.617Z,33.3
2022-12-01T08:42:27.347Z,29.8
2022-12-01T08:45:14.951Z,32.3
2022-12-01T08:48:02.648Z,31
2022-12-01T08:50:50.361Z,32.1
2022-12-01T08:53:42.572Z,32
2022-12-01T08:56:34.614Z,33.2
2022-12-01T08:59:24.885Z,34.2
2022-12-01T09:02:12.699Z,40.8
2022-12-01T09:05:02.857Z,46.3
2022-12-01T09:07:51.411Z,38.7
2022-12-01T09:11:15.874Z,30.1
2022-12-01T09:14:04.580Z,36.2
2022-12-01T09:16:52.416Z,34.4
2022-12-01T09:19:40.113Z,36.3
2022-12-01T09:22:28.013Z,37.8
2022-12-01T09:25:15.556Z,38.3
2022-12-01T09:28:03.150Z,35.9
2022-12-01T09:30:50.818Z,37.9
2022-12-01T09:33:38.406Z,33.8
2022-12-01T09:36:26.278Z,36
2022-12-01T09:39:15.316Z,36
2022-12-01T09:42:09.006Z,36.4
2022-12-01T09:45:01.590Z,35.7
2022-12-01T09:47:50.442Z,33.5
2022-12-01T09:50:41.867Z,34.9
2022-12-01T09:53:29.383Z,36.7
2022-12-01T09:56:17.336Z,32.7
2022-12-01T09:59:08.912Z,35.2
2022-12-01T10:02:03.917Z,32.2
2022-12-01T10:05:09.512Z,32.2
2022-12-01T10:08:04.007Z,33.1
2022-12-01T10:10:58.011Z,34.3
2022-12-01T10:13:51.667Z,36.5
2022-12-01T10:16:39.663Z,36.6
2022-12-01T10:19:34.209Z,32.6
2022-12-01T10:22:29.486Z,39.1
2022-12-01T10:25:55.708Z,33.9
2022-12-01T10:28:46.930Z,34.9
2022-12-01T10:31:49.706Z,31.9
2022-12-01T10:34:40.280Z,33.1
2022-12-01T10:37:31.181Z,30
2022-12-01T10:40:19.376Z,33.3
2022-12-01T10:43:07.609Z,32.6
2022-12-01T10:45:56.223Z,33.1
2022-12-01T10:48:46.465Z,30.2
2022-12-01T10:51:43.814Z,37.4
2022-12-01T10:54:36.038Z,35.7
2022-12-01T10:57:25.693Z,35.5
2022-12-01T11:00:36.287Z,32.9
2022-12-01T11:03:48.575Z,37.2
2022-12-01T11:06:39.777Z,34.6
2022-12-01T11:09:34.369Z,35.2
2022-12-01T11:12:22.321Z,31.1
2022-12-01T11:15:10.599Z,33.8
2022-12-01T11:18:06.800Z,30.6
2022-12-01T11:21:07.458Z,35.3
2022-12-01T11:23:58.839Z,32.7
2022-12-01T11:26:46.648Z,31.6
2022-12-01T11:29:34.218Z,29.2
2022-12-01T11:32:23.937Z,34.3
2022-12-01T11:35:14.092Z,32.3
2022-12-01T11:38:29.832Z,33.8
2022-12-01T11:41:19.805Z,30.9
2022-12-01T11:44:35.637Z,30.2
2022-12-01T11:47:41.040Z,31.2
2022-12-01T11:50:46.105Z,32.6
2022-12-01T11:53:48.385Z,31.4
2022-12-01T11:57:17.501Z,26.7
2022-12-01T12:00:20.387Z,30
2022-12-01T12:03:11.048Z,32.6
2022-12-01T12:06:38.376Z,30.2
2022-12-01T12:09:33.979Z,28.8
2022-12-01T12:12:35.906Z,29.9
2022-12-01T12:15:38.207Z,33.2
2022-12-01T12:18:34.893Z,31.3
2022-12-01T12:21:37.665Z,33.7
2022-12-01T12:24:34.571Z,30.7
2022-12-01T12:27:35.029Z,31
2022-12-01T12:30:33.720Z,30.9
2022-12-01T12:33:31.677Z,29
2022-12-01T12:36:34.405Z,35.5
2022-12-01T12:39:32.116Z,36.2
2022-12-01T12:42:34.667Z,34.5
2022-12-01T12:45:35.821Z,37.9
2022-12-01T12:49:03.883Z,42.7
2022-12-01T12:52:17.128Z,38.8
2022-12-01T12:55:10.876Z,37.4
2022-12-01T12:58:10.915Z,39.4
2022-12-01T13:01:05.370Z,45.7
2022-12-01T13:03:58.736Z,43.9
2022-12-01T13:06:52.802Z,35
2022-12-01T13:09:48.496Z,36.7
2022-12-01T13:12:40.300Z,41.7
2022-12-01T13:15:36.954Z,39
2022-12-01T13:18:26.121Z,40.7
2022-12-01T13:21:20.609Z,34.2
2022-12-01T13:24:08.638Z,32
2022-12-01T13:26:59.411Z,35.6
2022-12-01T13:29:51.885Z,37.9
2022-12-01T13:32:41.452Z,41.5
2022-12-01T13:35:29.044Z,43.4
2022-12-01T13:38:20.426Z,39.8
2022-12-01T13:41:14.207Z,35.1
2022-12-01T14:00:55.804Z,34.9
2022-12-01T14:04:29.296Z,34.4
2022-12-01T14:07:17.539Z,35.8
2022-12-01T14:10:12.931Z,33.8
2022-12-01T14:13:10.820Z,35.9
2022-12-01T14:16:05.874Z,37.1
2022-12-01T14:18:54.594Z,38
2022-12-01T14:21:43.978Z,39.5
2022-12-01T14:24:34.382Z,35.7
2022-12-01T14:27:25.096Z,35.5
2022-12-01T14:30:23.228Z,36.4
2022-12-01T14:33:49.067Z,33
2022-12-01T14:36:42.896Z,36.4
2022-12-01T14:39:34.161Z,37.7
2022-12-01T14:42:24.092Z,35.8
2022-12-01T14:45:49.519Z,43
2022-12-01T14:48:51.905Z,36.6
2022-12-01T14:51:40.567Z,40
2022-12-01T14:54:32.370Z,42.3
2022-12-01T14:57:28.798Z,40
2022-12-01T15:00:20.353Z,35.3
2022-12-01T15:03:09.597Z,34.7
2022-12-01T15:05:59.318Z,37.9
2022-12-01T15:09:04.020Z,34.1
2022-12-01T15:11:57.144Z,34.2
2022-12-01T15:14:47.508Z,33.6
2022-12-01T15:17:35.670Z,34.3
2022-12-01T15:20:23.295Z,32.4
2022-12-01T15:23:16.975Z,32.7
2022-12-01T15:26:04.489Z,28.7
2022-12-01T15:29:02.900Z,30.6
2022-12-01T15:31:59.359Z,33.5
2022-12-01T15:34:50.749Z,28.6
2022-12-01T15:37:40.616Z,34.7
2022-12-01T15:41:21.264Z,32.6
2022-12-01T15:44:26.384Z,29.8
2022-12-01T15:47:17.491Z,33.5
2022-12-01T15:50:29.609Z,31.5
2022-12-01T15:53:23.489Z,33.7
2022-12-01T15:56:17.367Z,31.1
2022-12-01T15:59:12.051Z,20.7
2022-12-01T16:02:13.992Z,24
2022-12-01T16:05:11.890Z,26.6
2022-12-01T16:08:13.005Z,25.1
2022-12-01T16:11:04.100Z,27.3
2022-12-01T16:13:57.070Z,29.7
2022-12-01T16:16:47.575Z,33.1
2022-12-01T16:19:36.360Z,28.9
2022-12-01T16:22:28.070Z,31
2022-12-01T16:25:15.642Z,24.8
2022-12-01T16:28:07.125Z,28.8
2022-12-01T16:31:08.305Z,25.8
2022-12-01T16:34:18.528Z,30
2022-12-01T16:37:20.261Z,29.8
2022-12-01T16:40:07.977Z,22.2
2022-12-01T16:42:58.100Z,21.7
2022-12-01T16:45:45.659Z,20.3
2022-12-01T16:48:37.368Z,20.1
2022-12-01T16:51:54.352Z,18.4
2022-12-01T16:54:43.282Z,18.9
2022-12-01T16:57:34.186Z,18.4
2022-12-01T17:00:21.884Z,40.2
2022-12-01T17:03:10.436Z,29.7
2022-12-01T17:06:01.314Z,20.9
2022-12-01T17:08:50.689Z,23.9
2022-12-01T17:11:38.289Z,21.5
2022-12-01T17:14:26.080Z,19.9
2022-12-01T17:17:13.887Z,21.9
2022-12-01T17:20:01.927Z,25.3
2022-12-01T17:22:55.983Z,19.3
2022-12-01T17:25:44.163Z,25.7
2022-12-01T17:28:31.838Z,19.6
2022-12-01T17:31:20.220Z,22.7
2022-12-01T17:34:07.870Z,29.4
2022-12-01T17:36:55.658Z,27.4
2022-12-01T17:39:43.338Z,20
2022-12-01T17:42:31.039Z,20
2022-12-01T17:45:19.666Z,21.5
2022-12-01T17:48:07.650Z,17.5
2022-12-01T17:50:55.251Z,17.5
2022-12-01T17:53:44.315Z,14.7
2022-12-01T17:56:31.994Z,13.9
2022-12-01T17:59:20.198Z,16.7
2022-12-01T18:02:07.945Z,15.3
2022-12-01T18:04:57.648Z,16.5
2022-12-01T18:07:45.451Z,16.9
2022-12-01T18:10:33.507Z,17.9
2022-12-01T18:13:21.654Z,15
2022-12-01T18:16:09.366Z,14.2
2022-12-01T18:19:01.893Z,17.7
2022-12-01T18:21:49.545Z,25.6
2022-12-01T18:24:37.073Z,21
2022-12-01T18:27:24.652Z,21.2
2022-12-01T18:30:12.267Z,36.6
2022-12-01T18:33:00.438Z,50.6
2022-12-01T18:35:47.968Z,50.8
2022-12-01T18:38:35.533Z,33
2022-12-01T18:41:23.282Z,28.3
2022-12-01T18:44:10.998Z,21.4
2022-12-01T18:46:58.942Z,17.8
2022-12-01T18:49:48.384Z,18.7
2022-12-01T18:52:35.994Z,16.3
2022-12-01T18:55:23.638Z,17.2
2022-12-01T18:58:11.289Z,18.7
2022-12-01T19:00:59.065Z,21.5
2022-12-01T19:03:47.643Z,22.8
2022-12-01T19:06:35.431Z,24.1
2022-12-01T19:09:25.238Z,27.5
2022-12-01T19:12:12.786Z,28.6
2022-12-01T19:15:00.667Z,20.3
2022-12-01T19:17:48.638Z,24.2
2022-12-01T19:20:36.335Z,17
2022-12-01T19:23:23.896Z,19.3
2022-12-01T19:26:12.234Z,21.6
2022-12-01T19:29:02.754Z,15.9
2022-12-01T19:31:50.389Z,28.4
2022-12-01T19:34:38.064Z,26.2
2022-12-01T19:37:25.645Z,26.1
2022-12-01T19:40:13.402Z,18.8
2022-12-01T19:43:01.099Z,28.7
2022-12-01T19:45:48.730Z,22.9
2022-12-01T19:48:36.392Z,22.3
2022-12-01T19:51:24.394Z,16.4
2022-12-01T19:54:13.864Z,15
2022-12-01T19:57:03.626Z,16.3
2022-12-01T19:59:51.339Z,15
2022-12-01T20:02:39.174Z,14.2
2022-12-01T20:05:27.118Z,12.4
2022-12-01T20:08:16.498Z,12.8
2022-12-01T20:11:04.084Z,15.5
2022-12-01T20:13:52.365Z,16.7
2022-12-01T20:16:40.520Z,15.1
2022-12-01T20:19:28.297Z,15.3
2022-12-01T20:22:15.868Z,12.2
2022-12-01T20:25:03.894Z,12.9
2022-12-01T20:27:53.684Z,13.5
2022-12-01T20:30:41.232Z,17.6
2022-12-01T20:33:28.854Z,17.6
2022-12-01T20:36:16.633Z,13.8
2022-12-01T20:39:04.671Z,11.7
2022-12-01T20:41:53.712Z,16.3
2022-12-01T20:44:41.386Z,15.4
2022-12-01T20:47:29.331Z,15.4
2022-12-01T20:50:21.117Z,13.8
2022-12-01T20:53:08.797Z,15.5
2022-12-01T20:55:56.719Z,17.3
2022-12-01T20:58:49.106Z,14.3
2022-12-01T21:01:37.514Z,14.6
2022-12-01T21:04:25.553Z,11.6
2022-12-01T21:07:13.150Z,15.4
2022-12-01T21:10:00.803Z,17.4
2022-12-01T21:12:50.324Z,18.3
2022-12-01T21:16:14.577Z,14.5
2022-12-01T21:19:13.127Z,14.8
2022-12-01T21:22:07.635Z,15.7
2022-12-01T21:24:57.019Z,14.3
2022-12-01T21:27:52.308Z,17.3
2022-12-01T21:30:45.634Z,18.3
2022-12-01T21:33:34.533Z,15.6
2022-12-01T21:36:23.559Z,16.8
2022-12-01T21:39:15.861Z,14.3
2022-12-01T21:42:06.272Z,17.3
2022-12-01T21:45:01.762Z,17.8
2022-12-01T21:48:03.117Z,18.7
2022-12-01T21:51:00.018Z,18.8
2022-12-01T21:53:56.799Z,18.9
2022-12-01T21:56:46.668Z,17.4
2022-12-01T21:59:37.353Z,16.9
2022-12-01T22:02:24.941Z,15.8
2022-12-01T22:05:30.124Z,15.1
2022-12-01T22:08:23.017Z,15.3
2022-12-01T22:11:12.433Z,13.6
2022-12-01T22:14:03.424Z,15.5
2022-12-01T22:17:00.119Z,15.6
2022-12-01T22:20:01.768Z,14.1
2022-12-01T22:23:06.534Z,14.5
2022-12-01T22:25:57.966Z,15.9
2022-12-01T22:28:46.295Z,14.5
2022-12-01T22:31:38.381Z,15.9
2022-12-01T22:34:25.866Z,19.3
2022-12-01T22:37:13.417Z,19.1
2022-12-01T22:40:05.453Z,17.6
2022-12-01T22:43:17.423Z,17.2
2022-12-01T22:46:11.442Z,19.6
2022-12-01T22:49:07.470Z,20.7
2022-12-01T22:52:04.098Z,18.7
2022-12-01T22:55:03.918Z,21.5
2022-12-01T22:58:00.188Z,20.6
2022-12-01T23:00:57.786Z,21.3
2022-12-01T23:03:52.761Z,32.8
2022-12-01T23:06:57.192Z,26.6
2022-12-01T23:09:50.074Z,24.9
2022-12-01T23:12:38.143Z,25.3
2022-12-01T23:15:26.618Z,24.5
2022-12-01T23:18:17.670Z,25
2022-12-01T23:21:07.349Z,20.7
2022-12-01T23:23:55.185Z,20.5
2022-12-01T23:26:42.765Z,24.8
2022-12-01T23:29:30.911Z,22.5
2022-12-01T23:32:19.528Z,24.7
2022-12-01T23:35:07.170Z,26.3
2022-12-01T23:38:00.657Z,23.7
2022-12-01T23:40:48.662Z,24.9
2022-12-01T23:43:40.653Z,22.2
2022-12-01T23:46:30.950Z,26.3
2022-12-01T23:49:18.561Z,23.8
2022-12-01T23:52:10.675Z,23.4
2022-12-01T23:55:03.788Z,25
2022-12-01T23:58:05.229Z,24.8
